createdAt,value
2023-05-16T00:00:42.112Z,100010.84
2023-05-16T00:03:14.232Z,100010.81
2023-05-16T00:05:45.731Z,100011.44
2023-05-16T00:08:18.257Z,100010.19
2023-05-16T00:10:48.350Z,100016.44
2023-05-16T00:13:23.840Z,100012.06
2023-05-16T00:15:54.858Z,100017.25
2023-05-16T00:18:29.487Z,100008.34
2023-05-16T00:20:59.464Z,100006.06
2023-05-16T00:23:29.179Z,100013.06
2023-05-16T00:25:59.458Z,100019.53
2023-05-16T00:28:29.253Z,100012.69
2023-05-16T00:31:02.928Z,100009.97
2023-05-16T00:33:33.072Z,100007.88
2023-05-16T00:36:10.595Z,100008.50
2023-05-16T00:38:43.830Z,100008.94
2023-05-16T00:41:13.702Z,100008.31
2023-05-16T00:43:43.803Z,100009.34
2023-05-16T00:46:14.685Z,100006.00
2023-05-16T00:48:45.005Z,99999.53
2023-05-16T00:51:17.440Z,99993.31
2023-05-16T00:53:48.256Z,99984.38
2023-05-16T00:56:18.213Z,99989.78
2023-05-16T00:58:48.977Z,99994.31
2023-05-16T01:01:23.929Z,99984.56
2023-05-16T01:03:54.987Z,99989.97
2023-05-16T01:06:24.746Z,99978.34
2023-05-16T01:08:54.435Z,99973.34
2023-05-16T01:11:33.112Z,99974.59
2023-05-16T01:14:39.816Z,99974.63
2023-05-16T01:17:44.150Z,99975.69
2023-05-16T01:20:23.404Z,99974.22
2023-05-16T01:23:06.646Z,99973.16
2023-05-16T01:25:49.239Z,99970.28
2023-05-16T01:28:21.366Z,99978.34
2023-05-16T01:30:52.666Z,99972.72
2023-05-16T01:33:22.944Z,99975.41
2023-05-16T01:36:14.719Z,99975.22
2023-05-16T01:39:06.496Z,99979.44
2023-05-16T01:41:54.402Z,99979.00
2023-05-16T01:44:53.851Z,99989.19
2023-05-16T01:47:23.782Z,99983.50
2023-05-16T01:50:16.547Z,99976.91
2023-05-16T01:52:52.743Z,99975.22
2023-05-16T01:55:46.953Z,99976.91
2023-05-16T01:58:18.016Z,99976.44
2023-05-16T02:00:49.141Z,99977.47
2023-05-16T02:03:22.453Z,99975.31
2023-05-16T02:05:53.934Z,99975.72
2023-05-16T02:08:25.044Z,99967.38
2023-05-16T02:10:55.718Z,99964.47
2023-05-16T02:13:25.844Z,99963.81
2023-05-16T02:15:55.639Z,99964.19
2023-05-16T02:18:26.012Z,99966.66
2023-05-16T02:20:57.527Z,99959.63
2023-05-16T02:23:27.457Z,99962.94
2023-05-16T02:25:57.190Z,99967.28
2023-05-16T02:28:27.219Z,99965.66
2023-05-16T02:31:03.861Z,99953.38
2023-05-16T02:33:34.587Z,99966.06
2023-05-16T02:36:05.044Z,99959.63
2023-05-16T02:38:35.429Z,99960.25
2023-05-16T02:41:05.541Z,99960.25
2023-05-16T02:43:35.252Z,99953.16
2023-05-16T02:46:07.668Z,99958.56
2023-05-16T02:48:38.251Z,99952.97
2023-05-16T02:51:08.038Z,99952.34
2023-05-16T02:53:37.716Z,99949.03
2023-05-16T02:56:08.651Z,99944.44
2023-05-16T02:58:38.550Z,99947.56
2023-05-16T03:01:09.057Z,99942.34
2023-05-16T03:03:40.068Z,99937.41
2023-05-16T03:06:09.957Z,99946.72
2023-05-16T03:08:39.669Z,99941.31
2023-05-16T03:11:09.376Z,99942.97
2023-05-16T03:13:39.902Z,99937.78
2023-05-16T03:16:12.652Z,99946.50
2023-05-16T03:18:45.676Z,99942.25
2023-05-16T03:21:15.400Z,99932.16
2023-05-16T03:23:47.032Z,99932.09
2023-05-16T03:26:16.870Z,99925.63
2023-05-16T03:28:46.973Z,99924.38
2023-05-16T03:31:17.541Z,99928.06
2023-05-16T03:33:47.721Z,99926.16
2023-05-16T03:36:18.343Z,99928.66
2023-05-16T03:38:49.763Z,99920.53
2023-05-16T03:41:19.928Z,99918.22
2023-05-16T03:43:49.655Z,99916.13
2023-05-16T03:46:23.655Z,99909.69
2023-05-16T03:48:59.115Z,99908.22
2023-05-16T03:51:29.921Z,99896.53
2023-05-16T03:53:59.589Z,99890.94
2023-05-16T03:56:30.897Z,99888.22
2023-05-16T03:59:03.304Z,99882.59
2023-05-16T04:01:34.179Z,99882.34
2023-05-16T04:04:04.313Z,99877.75
2023-05-16T04:06:34.163Z,99884.22
2023-05-16T04:09:04.341Z,99874.47
2023-05-16T04:11:35.660Z,99869.28
2023-05-16T04:14:10.488Z,99870.78
2023-05-16T04:16:41.720Z,99875.53
2023-05-16T04:19:11.533Z,99873.22
2023-05-16T04:21:41.207Z,99876.94
2023-05-16T04:24:11.214Z,99870.84
2023-05-16T04:26:45.409Z,99870.50
2023-05-16T04:29:16.824Z,99868.63
2023-05-16T04:31:46.548Z,99865.44
2023-05-16T04:34:18.250Z,99865.25
2023-05-16T04:36:49.969Z,99860.66
2023-05-16T04:39:19.856Z,99857.13
2023-05-16T04:41:50.547Z,99859.59
2023-05-16T04:44:20.454Z,99851.47
2023-05-16T04:46:52.524Z,99858.09
2023-05-16T04:49:23.093Z,99862.06
2023-05-16T04:51:58.479Z,99863.72
2023-05-16T04:54:28.090Z,99852.94
2023-05-16T04:56:59.844Z,99850.44
2023-05-16T04:59:29.888Z,99848.34
2023-05-16T05:01:59.669Z,99851.19
2023-05-16T05:04:33.103Z,99856.22
2023-05-16T05:07:02.791Z,99859.38
2023-05-16T05:09:33.149Z,99850.34
2023-05-16T05:12:03.926Z,99857.44
2023-05-16T05:14:33.562Z,99857.19
2023-05-16T05:17:04.623Z,99846.91
2023-05-16T05:19:34.537Z,99847.03
2023-05-16T05:22:05.266Z,99854.09
2023-05-16T05:24:34.965Z,99856.38
2023-05-16T05:27:05.936Z,99850.47
2023-05-16T05:29:36.157Z,99859.06
2023-05-16T05:32:05.983Z,99848.47
2023-05-16T05:34:35.672Z,99852.84
2023-05-16T05:37:07.669Z,99850.13
2023-05-16T05:39:37.479Z,99850.72
2023-05-16T05:42:08.090Z,99846.13
2023-05-16T05:44:39.333Z,99855.06
2023-05-16T05:47:09.467Z,99850.97
2023-05-16T05:49:39.179Z,99849.47
2023-05-16T05:52:09.437Z,99846.13
2023-05-16T05:54:39.169Z,99854.63
2023-05-16T05:57:09.310Z,99844.25
2023-05-16T05:59:39.481Z,99847.56
2023-05-16T06:02:12.392Z,99849.66
2023-05-16T06:04:44.669Z,99846.94
2023-05-16T06:07:14.644Z,99855.44
2023-05-16T06:09:45.120Z,99848.78
2023-05-16T06:12:15.539Z,99855.00
2023-05-16T06:14:45.602Z,99853.56
2023-05-16T06:17:18.125Z,99854.03
2023-05-16T06:19:48.020Z,99854.03
2023-05-16T06:22:20.785Z,99850.28
2023-05-16T06:24:50.449Z,99849.22
2023-05-16T06:27:20.584Z,99854.41
2023-05-16T06:29:50.245Z,99840.66
2023-05-16T06:32:19.981Z,99841.47
2023-05-16T06:34:50.989Z,99835.59
2023-05-16T06:37:20.803Z,99835.84
2023-05-16T06:39:50.495Z,99826.06
2023-05-16T06:42:22.087Z,99831.47
2023-05-16T06:44:52.008Z,99834.44
2023-05-16T06:47:26.204Z,99834.03
2023-05-16T06:49:57.033Z,99831.72
2023-05-16T06:52:27.038Z,99838.53
2023-05-16T06:54:59.545Z,99833.13
2023-05-16T06:57:32.184Z,99833.94
2023-05-16T07:00:01.916Z,99843.72
2023-05-16T07:02:32.263Z,99838.09
2023-05-16T07:05:02.036Z,99834.19
2023-05-16T07:07:33.048Z,99836.41
2023-05-16T07:10:05.625Z,99837.28
2023-05-16T07:12:35.685Z,99836.66
2023-05-16T07:15:09.107Z,99842.91
2023-05-16T07:17:38.980Z,99845.41
2023-05-16T07:20:11.766Z,99842.69
2023-05-16T07:22:42.496Z,99839.13
2023-05-16T07:25:14.637Z,99843.94
2023-05-16T07:27:46.775Z,99841.84
2023-05-16T07:30:17.036Z,99843.72
2023-05-16T07:32:46.961Z,99839.38
2023-05-16T07:35:17.187Z,99839.13
2023-05-16T07:37:48.001Z,99830.44
2023-05-16T07:40:19.745Z,99839.13
2023-05-16T07:42:50.459Z,99843.72
2023-05-16T07:45:20.934Z,99841.25
2023-05-16T07:47:53.505Z,99846.41
2023-05-16T07:50:23.924Z,99845.59
2023-05-16T07:52:54.108Z,99845.59
2023-05-16T07:55:23.830Z,99848.31
2023-05-16T07:57:54.230Z,99849.13
2023-05-16T08:00:24.374Z,99848.31
2023-05-16T08:02:59.447Z,99854.53
2023-05-16T08:05:30.290Z,99845.84
2023-05-16T08:08:02.889Z,99848.09
2023-05-16T08:10:33.399Z,99847.25
2023-05-16T08:13:03.149Z,99846.41
2023-05-16T08:15:33.608Z,99845.84
2023-05-16T08:18:03.468Z,99844.78
2023-05-16T08:20:33.186Z,99841.25
2023-05-16T08:23:03.730Z,99851.00
2023-05-16T08:25:33.783Z,99853.72
2023-05-16T08:28:03.885Z,99851.84
2023-05-16T08:30:33.802Z,99851.00
2023-05-16T08:33:06.473Z,99852.88
2023-05-16T08:35:37.051Z,99861.84
2023-05-16T08:38:06.718Z,99861.25
2023-05-16T08:40:36.988Z,99857.72
2023-05-16T08:43:07.290Z,99858.31
2023-05-16T08:45:37.696Z,99859.13
2023-05-16T08:48:10.475Z,99855.22
2023-05-16T08:50:40.483Z,99855.84
2023-05-16T08:53:10.709Z,99858.53
2023-05-16T08:55:40.795Z,99856.06
2023-05-16T08:58:11.205Z,99853.38
2023-05-16T09:00:41.310Z,99851.69
2023-05-16T09:03:12.197Z,99854.63
2023-05-16T09:05:42.424Z,99848.97
2023-05-16T09:08:12.103Z,99852.75
2023-05-16T09:10:42.172Z,99846.75
2023-05-16T09:13:12.609Z,99851.34
2023-05-16T09:15:42.599Z,99853.19
2023-05-16T09:18:18.833Z,99854.25
2023-05-16T09:20:50.420Z,99857.78
2023-05-16T09:23:20.092Z,99853.19
2023-05-16T09:25:49.756Z,99855.06
2023-05-16T09:28:21.145Z,99852.00
2023-05-16T09:30:50.891Z,99861.78
2023-05-16T09:33:20.684Z,99854.47
2023-05-16T09:35:58.132Z,99859.06
2023-05-16T09:38:29.042Z,99858.25
2023-05-16T09:41:01.407Z,99860.97
2023-05-16T09:43:31.110Z,99861.78
2023-05-16T09:46:02.103Z,99862.84
2023-05-16T09:48:32.760Z,99870.94
2023-05-16T09:51:06.651Z,99872.59
2023-05-16T09:53:37.525Z,99857.03
2023-05-16T09:56:10.482Z,99871.63
2023-05-16T09:58:41.662Z,99871.16
2023-05-16T10:01:12.117Z,99872.84
2023-05-16T10:03:45.779Z,99874.34
2023-05-16T10:06:15.926Z,99874.09
2023-05-16T10:08:46.321Z,99873.28
2023-05-16T10:11:16.017Z,99870.81
2023-05-16T10:13:50.979Z,99872.44
2023-05-16T10:16:22.158Z,99874.53
2023-05-16T10:18:52.447Z,99879.50
2023-05-16T10:21:25.203Z,99879.50
2023-05-16T10:23:56.852Z,99877.25
2023-05-16T10:26:26.950Z,99882.66
2023-05-16T10:28:56.688Z,99890.56
2023-05-16T10:31:26.476Z,99882.66
2023-05-16T10:33:56.240Z,99887.03
2023-05-16T10:36:26.341Z,99892.44
2023-05-16T10:38:56.466Z,99897.22
2023-05-16T10:41:26.249Z,99892.66
2023-05-16T10:43:59.925Z,99894.38
2023-05-16T10:46:33.133Z,99893.56
2023-05-16T10:49:03.218Z,99902.28
2023-05-16T10:51:40.566Z,99901.09
2023-05-16T10:54:16.327Z,99902.72
2023-05-16T10:56:46.084Z,99900.03
2023-05-16T10:59:42.706Z,99911.13
2023-05-16T11:02:37.604Z,99914.66
2023-05-16T11:05:08.067Z,99928.78
2023-05-16T11:07:38.662Z,99919.84
2023-05-16T11:10:28.129Z,99923.59
2023-05-16T11:12:58.836Z,99930.06
2023-05-16T11:15:34.315Z,99926.09
2023-05-16T11:18:11.601Z,99934.44
2023-05-16T11:20:41.878Z,99942.31
2023-05-16T11:23:24.702Z,99947.56
2023-05-16T11:25:55.847Z,99956.09
2023-05-16T11:28:27.539Z,99963.81
2023-05-16T11:30:59.468Z,99975.09
2023-05-16T11:33:31.373Z,99975.91
2023-05-16T11:36:16.239Z,99987.38
2023-05-16T11:38:47.440Z,99994.66
2023-05-16T11:41:19.320Z,99999.03
2023-05-16T11:43:52.092Z,100006.91
2023-05-16T11:46:24.753Z,100011.47
2023-05-16T11:48:55.082Z,100024.19
2023-05-16T11:51:24.896Z,100033.13
2023-05-16T11:53:55.557Z,100035.22
2023-05-16T11:56:25.373Z,100043.34
2023-05-16T11:58:55.298Z,100050.00
2023-05-16T12:01:25.341Z,100056.84
2023-05-16T12:04:02.617Z,100056.69
2023-05-16T12:06:32.952Z,100051.88
2023-05-16T12:09:08.421Z,100044.81
2023-05-16T12:11:42.340Z,100046.69
2023-05-16T12:14:15.548Z,100062.50
2023-05-16T12:16:46.292Z,100061.25
2023-05-16T12:19:16.145Z,100074.78
2023-05-16T12:21:45.997Z,100075.22
2023-05-16T12:24:15.703Z,100083.56
2023-05-16T12:26:46.637Z,100098.50
2023-05-16T12:29:16.809Z,100109.75
2023-05-16T12:31:49.737Z,100126.81
2023-05-16T12:34:25.114Z,100117.25
2023-05-16T12:36:55.176Z,100127.53
2023-05-16T12:39:26.082Z,100119.56
2023-05-16T12:41:55.768Z,100114.53
2023-05-16T12:44:28.164Z,100116.63
2023-05-16T12:46:59.522Z,100116.41
2023-05-16T12:49:29.252Z,100124.75
2023-05-16T12:52:05.535Z,100124.53
2023-05-16T12:54:35.717Z,100133.91
2023-05-16T12:57:05.978Z,100124.97
2023-05-16T12:59:36.807Z,100133.09
2023-05-16T13:02:07.304Z,100139.50
2023-05-16T13:04:38.653Z,100137.03
2023-05-16T13:07:08.815Z,100135.97
2023-05-16T13:09:44.011Z,100142.66
2023-05-16T13:12:15.744Z,100149.94
2023-05-16T13:14:45.582Z,100147.03
2023-05-16T13:17:15.327Z,100143.50
2023-05-16T13:19:47.468Z,100141.84
2023-05-16T13:22:18.574Z,100148.25
2023-05-16T13:24:48.313Z,100149.31
2023-05-16T13:27:22.985Z,100144.97
2023-05-16T13:29:52.722Z,100137.91
2023-05-16T13:32:22.487Z,100144.97
2023-05-16T13:34:52.174Z,100139.78
2023-05-16T13:37:22.063Z,100134.78
2023-05-16T13:39:52.110Z,100145.38
2023-05-16T13:42:21.824Z,100155.34
2023-05-16T13:44:52.115Z,100156.19
2023-05-16T13:47:22.454Z,100162.88
2023-05-16T13:49:52.713Z,100158.88
2023-05-16T13:52:22.763Z,100160.38
2023-05-16T13:54:54.517Z,100159.34
2023-05-16T13:57:29.354Z,100160.59
2023-05-16T14:00:24.911Z,100161.63
2023-05-16T14:02:48.894Z,100173.25
2023-05-16T14:05:18.765Z,100164.09
2023-05-16T14:07:48.987Z,100174.91
2023-05-16T14:10:18.727Z,100185.72
2023-05-16T14:12:48.760Z,100182.19
2023-05-16T14:15:18.554Z,100183.25
2023-05-16T14:17:51.449Z,100183.25
2023-05-16T14:20:21.334Z,100185.13
2023-05-16T14:22:52.036Z,100187.59
2023-05-16T14:25:22.139Z,100191.34
2023-05-16T14:27:52.673Z,100188.66
2023-05-16T14:30:25.984Z,100194.28
2023-05-16T14:32:55.889Z,100196.75
2023-05-16T14:35:26.088Z,100196.75
2023-05-16T14:37:56.831Z,100199.91
2023-05-16T14:40:26.608Z,100201.56
2023-05-16T14:42:56.803Z,100192.81
2023-05-16T14:45:26.713Z,100187.41
2023-05-16T14:47:57.191Z,100179.13
2023-05-16T14:50:29.699Z,100178.28
2023-05-16T14:52:59.412Z,100174.72
2023-05-16T14:55:29.338Z,100168.72
2023-05-16T14:58:00.049Z,100173.06
2023-05-16T15:00:30.523Z,100178.47
2023-05-16T15:03:01.898Z,100180.34
2023-05-16T15:05:32.230Z,100174.13
2023-05-16T15:08:02.010Z,100184.09
2023-05-16T15:10:31.748Z,100180.34
2023-05-16T15:13:01.939Z,100188.69
2023-05-16T15:15:31.644Z,100193.03
2023-05-16T15:18:01.442Z,100197.84
2023-05-16T15:20:31.283Z,100201.56
2023-05-16T15:23:01.835Z,100204.25
2023-05-16T15:25:34.575Z,100204.25
2023-05-16T15:28:04.413Z,100193.25
2023-05-16T15:30:36.903Z,100198.66
2023-05-16T15:33:07.065Z,100195.97
2023-05-16T15:35:37.592Z,100199.09
2023-05-16T15:38:10.288Z,100196.97
2023-05-16T15:40:42.749Z,100199.91
2023-05-16T15:43:12.588Z,100200.97
2023-05-16T15:45:44.125Z,100195.97
2023-05-16T15:48:15.489Z,100189.94
2023-05-16T15:50:45.346Z,100192.63
2023-05-16T15:53:15.385Z,100188.28
2023-05-16T15:55:45.824Z,100184.53
2023-05-16T15:58:16.570Z,100186.84
2023-05-16T16:00:47.563Z,100189.31
2023-05-16T16:03:17.354Z,100184.13
2023-05-16T16:05:47.159Z,100179.34
2023-05-16T16:08:17.291Z,100174.16
2023-05-16T16:10:47.932Z,100182.47
2023-05-16T16:13:19.150Z,100192.84
2023-05-16T16:15:48.893Z,100189.94
2023-05-16T16:18:19.355Z,100190.38
2023-05-16T16:20:49.063Z,100187.66
2023-05-16T16:23:19.389Z,100191.19
2023-05-16T16:25:50.197Z,100186.63
2023-05-16T16:28:21.161Z,100191.38
2023-05-16T16:30:52.222Z,100188.50
2023-05-16T16:33:23.413Z,100182.47
2023-05-16T16:35:58.765Z,100169.78
2023-05-16T16:38:28.211Z,100171.91
2023-05-16T16:41:03.261Z,100168.13
2023-05-16T16:43:33.020Z,100170.81
2023-05-16T16:46:03.572Z,100165.63
2023-05-16T16:48:35.727Z,100154.41
2023-05-16T16:51:06.496Z,100165.00
2023-05-16T16:53:36.839Z,100161.66
2023-05-16T16:56:09.399Z,100166.06
2023-05-16T16:58:39.526Z,100178.94
2023-05-16T17:01:09.263Z,100188.91
2023-05-16T17:03:39.666Z,100188.69
2023-05-16T17:06:09.485Z,100184.13
2023-05-16T17:08:41.916Z,100185.97
2023-05-16T17:11:11.630Z,100189.53
2023-05-16T17:13:43.377Z,100193.06
2023-05-16T17:16:13.351Z,100188.50
2023-05-16T17:18:44.776Z,100193.06
2023-05-16T17:21:14.511Z,100195.78
2023-05-16T17:23:44.464Z,100190.56
2023-05-16T17:26:15.394Z,100199.50
2023-05-16T17:28:46.493Z,100211.16
2023-05-16T17:31:16.647Z,100205.13
2023-05-16T17:33:46.702Z,100210.31
2023-05-16T17:36:16.382Z,100201.38
2023-05-16T17:38:46.104Z,100200.34
2023-05-16T17:41:15.949Z,100197.00
2023-05-16T17:43:45.774Z,100213.88
2023-05-16T17:46:16.035Z,100218.63
2023-05-16T17:48:46.342Z,100216.75
2023-05-16T17:51:16.247Z,100214.06
2023-05-16T17:53:46.703Z,100222.16
2023-05-16T17:56:16.418Z,100218.41
2023-05-16T17:58:47.458Z,100220.91
2023-05-16T18:01:17.637Z,100229.22
2023-05-16T18:03:47.564Z,100225.69
2023-05-16T18:06:17.455Z,100216.97
2023-05-16T18:08:47.600Z,100226.75
2023-05-16T18:11:17.409Z,100225.91
2023-05-16T18:13:48.389Z,100214.06
2023-05-16T18:16:18.110Z,100214.28
2023-05-16T18:18:48.151Z,100233.19
2023-05-16T18:21:17.920Z,100223.81
2023-05-16T18:23:47.605Z,100226.50
2023-05-16T18:26:19.397Z,100218.63
2023-05-16T18:28:49.222Z,100218.41
2023-05-16T18:31:19.402Z,100213.44
2023-05-16T18:33:50.029Z,100208.25
2023-05-16T18:36:23.924Z,100203.25
2023-05-16T18:38:54.802Z,100214.50
2023-05-16T18:41:24.581Z,100216.97
2023-05-16T18:43:55.585Z,100215.72
2023-05-16T18:46:25.309Z,100211.97
2023-05-16T18:48:59.497Z,100219.91
2023-05-16T18:51:29.580Z,100221.56
2023-05-16T18:53:59.696Z,100220.91
2023-05-16T18:56:29.449Z,100210.97
2023-05-16T18:58:59.195Z,100215.31
2023-05-16T19:01:30.056Z,100220.72
2023-05-16T19:04:00.073Z,100218.84
2023-05-16T19:06:30.288Z,100226.13
2023-05-16T19:09:00.751Z,100229.03
2023-05-16T19:11:30.600Z,100232.59
2023-05-16T19:14:00.692Z,100232.38
2023-05-16T19:16:30.382Z,100237.97
2023-05-16T19:19:00.181Z,100237.13
2023-05-16T19:21:30.084Z,100241.50
2023-05-16T19:24:00.265Z,100236.09
2023-05-16T19:26:31.024Z,100236.09
2023-05-16T19:29:00.813Z,100236.50
2023-05-16T19:31:30.959Z,100233.59
2023-05-16T19:34:00.824Z,100244.41
2023-05-16T19:36:31.373Z,100240.84
2023-05-16T19:39:02.030Z,100248.13
2023-05-16T19:41:31.719Z,100244.41
2023-05-16T19:44:01.406Z,100253.34
2023-05-16T19:46:32.309Z,100256.03
2023-05-16T19:49:02.169Z,100251.88
2023-05-16T19:51:41.439Z,100266.03
2023-05-16T19:54:12.114Z,100264.56
2023-05-16T19:56:42.964Z,100266.22
2023-05-16T19:59:13.116Z,100266.63
2023-05-16T20:01:42.803Z,100273.91
2023-05-16T20:04:13.547Z,100266.00
2023-05-16T20:06:43.437Z,100263.09
2023-05-16T20:09:13.163Z,100264.56
2023-05-16T20:11:42.896Z,100253.75
2023-05-16T20:14:12.566Z,100258.31
2023-05-16T20:16:42.633Z,100258.72
2023-05-16T20:19:12.497Z,100244.63
2023-05-16T20:21:42.375Z,100249.19
2023-05-16T20:24:12.111Z,100251.66
2023-05-16T20:26:42.455Z,100251.66
2023-05-16T20:29:12.584Z,100249.19
2023-05-16T20:31:44.229Z,100256.03
2023-05-16T20:34:13.961Z,100253.53
2023-05-16T20:36:43.674Z,100257.69
2023-05-16T20:39:13.963Z,100262.06
2023-05-16T20:41:43.731Z,100266.22
2023-05-16T20:44:13.502Z,100263.31
2023-05-16T20:46:44.707Z,100257.91
2023-05-16T20:49:14.811Z,100270.81
2023-05-16T20:51:44.543Z,100270.81
2023-05-16T20:54:15.229Z,100269.53
2023-05-16T20:56:49.182Z,100272.25
2023-05-16T20:59:18.866Z,100270.59
2023-05-16T21:01:49.585Z,100276.81
2023-05-16T21:04:20.097Z,100266.41
2023-05-16T21:06:50.131Z,100265.41
2023-05-16T21:09:19.829Z,100268.28
2023-05-16T21:11:49.490Z,100270.16
2023-05-16T21:14:19.226Z,100278.03
2023-05-16T21:16:48.915Z,100282.00
2023-05-16T21:19:18.837Z,100285.31
2023-05-16T21:21:48.629Z,100289.50
2023-05-16T21:24:19.039Z,100285.53
2023-05-16T21:26:49.048Z,100286.16
2023-05-16T21:29:18.714Z,100279.91
2023-05-16T21:31:48.399Z,100276.00
2023-05-16T21:34:18.232Z,100277.22
2023-05-16T21:36:48.020Z,100280.75
2023-05-16T21:39:17.811Z,100283.44
2023-05-16T21:41:48.322Z,100282.22
2023-05-16T21:44:20.018Z,100283.25
2023-05-16T21:46:50.953Z,100295.50
2023-05-16T21:49:21.657Z,100297.19
2023-05-16T21:51:54.207Z,100291.97
2023-05-16T21:54:23.931Z,100291.97
2023-05-16T21:56:53.689Z,100292.19
2023-05-16T21:59:23.841Z,100295.13
2023-05-16T22:01:54.464Z,100287.84
2023-05-16T22:04:25.232Z,100289.72
2023-05-16T22:06:55.552Z,100295.72
2023-05-16T22:09:25.406Z,100289.50
2023-05-16T22:11:55.066Z,100294.91
2023-05-16T22:14:24.869Z,100294.69
2023-05-16T22:16:54.633Z,100298.00
2023-05-16T22:19:27.256Z,100294.91
2023-05-16T22:21:58.161Z,100285.13
2023-05-16T22:24:30.537Z,100297.81
2023-05-16T22:27:01.605Z,100292.19
2023-05-16T22:29:32.210Z,100285.53
2023-05-16T22:32:01.909Z,100292.81
2023-05-16T22:34:31.647Z,100285.75
2023-05-16T22:37:02.128Z,100287.41
2023-05-16T22:39:31.854Z,100286.81
2023-05-16T22:42:02.637Z,100281.81
2023-05-16T22:44:35.094Z,100285.13
2023-05-16T22:47:09.353Z,100285.75
2023-05-16T22:49:39.439Z,100276.19
2023-05-16T22:52:09.820Z,100280.97
2023-05-16T22:54:44.160Z,100278.88
2023-05-16T22:57:14.576Z,100272.03
2023-05-16T22:59:44.533Z,100266.84
2023-05-16T23:02:14.317Z,100267.72
2023-05-16T23:04:45.332Z,100262.09
2023-05-16T23:07:18.846Z,100260.81
2023-05-16T23:09:48.496Z,100252.31
2023-05-16T23:12:18.285Z,100262.09
2023-05-16T23:14:48.369Z,100251.28
2023-05-16T23:17:21.128Z,100258.56
2023-05-16T23:19:51.034Z,100259.16
2023-05-16T23:22:23.874Z,100248.94
2023-05-16T23:24:53.729Z,100257.28
2023-05-16T23:27:23.802Z,100248.34
2023-05-16T23:29:54.044Z,100244.81
2023-05-16T23:32:23.800Z,100257.28
2023-05-16T23:34:54.010Z,100251.69
2023-05-16T23:37:26.514Z,100249.41
2023-05-16T23:39:56.874Z,100255.41
2023-05-16T23:42:27.064Z,100267.03
2023-05-16T23:44:56.846Z,100269.56
2023-05-16T23:47:26.784Z,100271.00
2023-05-16T23:49:57.232Z,100267.47
2023-05-16T23:52:27.385Z,100269.75
2023-05-16T23:54:57.928Z,100264.13
2023-05-16T23:57:27.656Z,100266.00
2023-05-16T23:59:57.401Z,100266.41
